Time;durP1;ratioP1;P1;durP2;ratioP2;P2;SDS_P1;SDS_P2;PMS_P1;PMS_P2;Temp;Humidity;BMP_temperature;BMP_pressure;BME280_temperature;BME280_humidity;BME280_pressure;Samples;Min_cycle;Max_cycle;Signal;HPM_P1;HPM_P2
2021/08/30 00:00:19;;;;;;;4.00;2.73;;;14.70;99.90;;;;;;5013781;28;20223;-70
2021/08/30 00:02:44;;;;;;;3.97;3.13;;;14.60;99.90;;;;;;5013514;28;20207;-70
2021/08/30 00:05:10;;;;;;;2.93;2.50;;;14.60;99.90;;;;;;5013512;28;20211;-70
2021/08/30 00:07:36;;;;;;;3.67;3.27;;;14.60;99.90;;;;;;5013435;28;20169;-70
2021/08/30 00:10:04;;;;;;;3.63;3.00;;;14.60;99.90;;;;;;5013665;28;20929;-70
2021/08/30 00:12:29;;;;;;;3.70;3.20;;;14.50;99.90;;;;;;5013345;28;20192;-70
2021/08/30 00:14:55;;;;;;;5.40;3.30;;;14.50;99.90;;;;;;5013457;28;20411;-70
2021/08/30 00:17:20;;;;;;;3.53;2.90;;;14.50;99.90;;;;;;5013078;28;20207;-71
2021/08/30 00:19:46;;;;;;;3.70;3.20;;;14.60;99.90;;;;;;5012705;28;20175;-70
2021/08/30 00:22:11;;;;;;;3.80;3.50;;;14.50;99.90;;;;;;5013501;28;20231;-70
2021/08/30 00:24:37;;;;;;;3.73;3.10;;;14.50;99.90;;;;;;5013522;28;20179;-70
2021/08/30 00:27:02;;;;;;;4.40;4.00;;;14.50;99.90;;;;;;5013195;28;20252;-70
2021/08/30 00:29:28;;;;;;;3.93;3.50;;;14.60;99.90;;;;;;5013603;28;20163;-70
2021/08/30 00:31:54;;;;;;;4.20;3.80;;;14.60;99.90;;;;;;5012871;28;20164;-69
2021/08/30 00:34:20;;;;;;;3.50;3.20;;;14.60;99.90;;;;;;5013108;28;20181;-69
2021/08/30 00:36:46;;;;;;;5.10;4.60;;;14.60;99.90;;;;;;5012849;28;20469;-69
2021/08/30 00:39:12;;;;;;;4.30;3.60;;;14.60;99.90;;;;;;5013055;28;20626;-69
2021/08/30 00:41:37;;;;;;;5.20;4.10;;;14.60;99.90;;;;;;5013062;28;20530;-69
2021/08/30 00:44:03;;;;;;;4.90;4.10;;;14.70;99.90;;;;;;5012849;28;20188;-69
2021/08/30 00:46:29;;;;;;;3.97;3.00;;;14.70;99.90;;;;;;5012784;28;20199;-69
2021/08/30 00:48:54;;;;;;;4.53;4.03;;;14.70;99.90;;;;;;5012571;28;20750;-69
2021/08/30 00:51:21;;;;;;;4.63;4.00;;;14.70;99.90;;;;;;5012797;28;20176;-69
2021/08/30 00:53:50;;;;;;;4.13;3.73;;;14.70;99.90;;;;;;5012765;28;20557;-69
2021/08/30 00:56:19;;;;;;;4.50;4.07;;;14.70;99.90;;;;;;5012747;28;20426;-69
2021/08/30 00:58:45;;;;;;;5.07;4.07;;;14.70;99.90;;;;;;5012523;28;20407;-69
2021/08/30 01:01:12;;;;;;;5.07;4.67;;;14.70;99.90;;;;;;5012883;28;20407;-68
2021/08/30 01:03:38;;;;;;;5.63;4.37;;;14.70;99.90;;;;;;5012356;28;20521;-69
2021/08/30 01:06:18;;;;;;;4.53;4.10;;;14.70;99.90;;;;;;5012602;28;20415;-69
2021/08/30 01:08:53;;;;;;;4.10;3.50;;;14.70;99.90;;;;;;5012470;28;20464;-69
2021/08/30 01:11:23;;;;;;;3.90;3.60;;;14.60;99.90;;;;;;5011159;28;20818;-69
2021/08/30 01:14:02;;;;;;;4.90;4.50;;;14.70;99.90;;;;;;5012206;28;20977;-69
2021/08/30 01:16:30;;;;;;;4.33;4.00;;;14.70;99.90;;;;;;5012261;28;20927;-68
2021/08/30 01:18:59;;;;;;;4.70;4.30;;;14.60;99.90;;;;;;5012268;28;20407;-69
2021/08/30 01:21:33;;;;;;;5.00;4.03;;;14.60;99.90;;;;;;5011120;28;20459;-69
2021/08/30 01:24:05;;;;;;;5.07;4.57;;;14.70;99.90;;;;;;5011493;28;20756;-69
2021/08/30 01:26:35;;;;;;;4.20;3.80;;;14.60;99.90;;;;;;5012496;28;20510;-69
2021/08/30 01:29:11;;;;;;;4.50;4.10;;;14.60;99.90;;;;;;5012134;28;20408;-69
2021/08/30 01:31:54;;;;;;;4.10;3.70;;;14.60;99.90;;;;;;5012219;28;20406;-69
2021/08/30 01:34:21;;;;;;;4.40;3.90;;;14.60;99.90;;;;;;5012094;28;20503;-68
2021/08/30 01:36:49;;;;;;;5.43;4.40;;;14.60;99.90;;;;;;5012069;28;20420;-70
2021/08/30 01:39:16;;;;;;;4.40;4.10;;;14.60;99.90;;;;;;5012104;28;20549;-71
2021/08/30 01:41:43;;;;;;;5.83;4.30;;;14.60;99.90;;;;;;5011909;28;20443;-68
2021/08/30 01:44:09;;;;;;;5.00;4.50;;;14.60;99.90;;;;;;5011916;28;20833;-71
2021/08/30 01:46:36;;;;;;;4.17;3.77;;;14.70;99.90;;;;;;5011900;28;20407;-68
2021/08/30 01:49:02;;;;;;;5.23;4.73;;;14.60;99.90;;;;;;5012009;28;20446;-69
2021/08/30 01:51:28;;;;;;;5.80;4.77;;;14.60;99.90;;;;;;5011833;28;20458;-69
2021/08/30 01:53:55;;;;;;;4.37;3.97;;;14.50;99.90;;;;;;5011980;28;20430;-69
2021/08/30 01:56:23;;;;;;;4.67;3.70;;;14.50;99.90;;;;;;5011913;28;20415;-70
2021/08/30 02:01:34;;;;;;;3.90;3.60;;;14.50;99.90;;;;;;5011719;28;20479;-70
2021/08/30 02:04:01;;;;;;;4.10;3.70;;;14.50;99.90;;;;;;5011692;28;20435;-70
2021/08/30 02:06:26;;;;;;;4.90;4.40;;;14.50;99.90;;;;;;5011853;28;20235;-70
2021/08/30 02:08:54;;;;;;;3.80;3.50;;;14.50;99.90;;;;;;5011882;28;20400;-71
2021/08/30 02:11:25;;;;;;;4.00;3.70;;;14.50;99.90;;;;;;5011630;28;20167;-71
2021/08/30 02:13:51;;;;;;;4.00;3.60;;;14.60;99.90;;;;;;5011564;28;20956;-70
2021/08/30 02:16:17;;;;;;;3.63;3.13;;;14.50;99.90;;;;;;5011708;28;20399;-70
2021/08/30 02:18:54;;;;;;;6.70;4.03;;;14.50;99.90;;;;;;5011667;28;20486;-70
2021/08/30 02:21:43;;;;;;;5.20;4.30;;;14.50;99.90;;;;;;5011519;28;20430;-70
2021/08/30 02:24:17;;;;;;;3.67;3.37;;;14.50;99.90;;;;;;5011496;28;20455;-70
2021/08/30 02:26:48;;;;;;;3.47;3.17;;;14.50;99.90;;;;;;5011845;28;20921;-69
2021/08/30 02:29:17;;;;;;;4.27;3.83;;;14.50;99.90;;;;;;5011769;28;20772;-68
2021/08/30 02:31:53;;;;;;;4.77;4.10;;;14.50;99.90;;;;;;5011765;28;20403;-68
2021/08/30 02:34:22;;;;;;;4.03;3.70;;;14.50;99.90;;;;;;5011911;28;20495;-68
2021/08/30 02:36:49;;;;;;;8.23;4.93;;;14.50;99.90;;;;;;5011459;28;20461;-71
2021/08/30 02:39:16;;;;;;;3.57;3.27;;;14.50;99.90;;;;;;5011476;28;20594;-69
2021/08/30 02:41:42;;;;;;;4.13;3.73;;;14.50;99.90;;;;;;5012172;28;20435;-69
2021/08/30 02:44:08;;;;;;;4.53;4.13;;;14.50;99.90;;;;;;5015043;28;20439;-69
2021/08/30 02:46:34;;;;;;;4.80;4.30;;;14.50;99.90;;;;;;5015100;28;20168;-69
2021/08/30 02:49:01;;;;;;;4.10;3.70;;;14.50;99.90;;;;;;5014927;28;20164;-69
2021/08/30 02:51:28;;;;;;;4.80;4.40;;;14.40;99.90;;;;;;5014962;28;20407;-69
2021/08/30 02:53:54;;;;;;;4.30;3.90;;;14.40;99.90;;;;;;5015182;28;20802;-68
2021/08/30 02:56:21;;;;;;;5.03;4.30;;;14.40;99.90;;;;;;5014934;28;20501;-69
2021/08/30 02:58:47;;;;;;;3.57;3.23;;;14.40;99.90;;;;;;5014804;28;20779;-69
2021/08/30 03:01:13;;;;;;;7.27;4.77;;;14.40;99.90;;;;;;5014705;28;20412;-69
2021/08/30 03:03:40;;;;;;;5.40;4.27;;;14.40;99.90;;;;;;5014488;28;20441;-70
2021/08/30 03:06:06;;;;;;;4.57;3.77;;;14.40;99.90;;;;;;5014759;28;20172;-68
2021/08/30 03:08:32;;;;;;;4.60;4.13;;;14.40;99.90;;;;;;5014647;28;20824;-69
2021/08/30 03:11:01;;;;;;;4.70;4.20;;;14.40;99.90;;;;;;5014613;28;20403;-69
2021/08/30 03:13:27;;;;;;;4.37;3.97;;;14.40;99.90;;;;;;5014618;28;20597;-69
2021/08/30 03:15:54;;;;;;;5.20;4.70;;;14.40;99.90;;;;;;5014464;28;20445;-69
2021/08/30 03:18:20;;;;;;;5.20;4.77;;;14.40;99.90;;;;;;5014294;28;20435;-69
2021/08/30 03:20:46;;;;;;;4.83;4.33;;;14.40;99.90;;;;;;5014548;28;20418;-70
2021/08/30 03:23:14;;;;;;;4.13;3.83;;;14.50;99.90;;;;;;5013737;28;20466;-69
2021/08/30 03:25:41;;;;;;;6.07;5.20;;;14.60;99.90;;;;;;5014591;28;20412;-70
2021/08/30 03:28:08;;;;;;;4.10;3.70;;;14.50;99.90;;;;;;5014227;28;20419;-69
2021/08/30 03:30:34;;;;;;;5.90;4.77;;;14.50;99.90;;;;;;5014264;28;20401;-69
2021/08/30 03:33:01;;;;;;;5.23;4.73;;;14.40;99.90;;;;;;5014063;28;20848;-70
2021/08/30 03:35:29;;;;;;;5.07;4.57;;;14.40;99.90;;;;;;5014378;28;20177;-69
2021/08/30 03:37:56;;;;;;;5.13;4.70;;;14.40;99.90;;;;;;5014344;28;20415;-69
2021/08/30 03:40:23;;;;;;;5.40;5.00;;;14.40;99.90;;;;;;5013312;28;20403;-69
2021/08/30 03:42:50;;;;;;;5.97;4.47;;;14.50;99.90;;;;;;5013992;28;20957;-70
2021/08/30 03:45:15;;;;;;;6.90;5.27;;;14.50;99.90;;;;;;5013950;28;20411;-69
2021/08/30 03:47:42;;;;;;;4.60;4.20;;;14.50;99.90;;;;;;5013834;28;20461;-70
2021/08/30 03:50:09;;;;;;;8.33;5.47;;;14.60;99.90;;;;;;5014191;28;20164;-70
2021/08/30 03:52:37;;;;;;;6.40;5.60;;;14.60;99.90;;;;;;5013346;28;20501;-69
2021/08/30 03:55:03;;;;;;;5.40;4.90;;;14.60;99.90;;;;;;5013385;28;20424;-70
2021/08/30 03:57:29;;;;;;;5.77;5.20;;;14.60;99.90;;;;;;5013822;28;20431;-70
2021/08/30 03:59:56;;;;;;;5.90;5.40;;;14.60;99.90;;;;;;5013766;28;20176;-70
2021/08/30 04:02:24;;;;;;;6.13;5.53;;;14.60;99.90;;;;;;5013611;28;20200;-69
2021/08/30 04:04:50;;;;;;;5.03;4.53;;;14.60;99.90;;;;;;5013625;28;20834;-69
2021/08/30 04:07:17;;;;;;;7.20;6.17;;;14.60;99.90;;;;;;5013504;28;20431;-69
2021/08/30 04:09:43;;;;;;;8.63;6.10;;;14.50;99.90;;;;;;5013629;28;20438;-69
2021/08/30 04:12:09;;;;;;;7.47;6.77;;;14.50;99.90;;;;;;4996127;28;20984;-69
2021/08/30 04:14:35;;;;;;;9.00;6.70;;;14.50;99.90;;;;;;5013593;28;20263;-69
2021/08/30 04:17:01;;;;;;;7.03;6.33;;;14.50;99.90;;;;;;4995712;28;20427;-70
2021/08/30 04:19:26;;;;;;;6.77;5.93;;;14.50;99.90;;;;;;5013495;28;20466;-69
2021/08/30 04:21:52;;;;;;;7.00;6.30;;;14.60;99.90;;;;;;5013416;28;20199;-69
2021/08/30 04:24:18;;;;;;;7.53;6.73;;;14.60;99.90;;;;;;4995754;28;20187;-70
2021/08/30 04:26:43;;;;;;;7.70;6.60;;;14.60;99.90;;;;;;4995666;28;20172;-69
2021/08/30 04:29:09;;;;;;;7.13;6.50;;;14.60;99.90;;;;;;4995532;28;20175;-69
2021/08/30 04:31:34;;;;;;;6.43;5.83;;;14.60;99.90;;;;;;4995652;28;20196;-71
2021/08/30 04:34:00;;;;;;;8.43;7.63;;;14.70;99.90;;;;;;5013211;28;20690;-70
2021/08/30 04:36:26;;;;;;;7.10;6.03;;;14.70;99.90;;;;;;5013211;28;20168;-70
2021/08/30 04:38:52;;;;;;;6.50;5.83;;;14.70;99.90;;;;;;4995380;28;20176;-70
2021/08/30 04:41:18;;;;;;;10.60;6.43;;;14.70;99.90;;;;;;4995300;28;20451;-70
2021/08/30 04:43:44;;;;;;;6.53;5.90;;;14.70;99.90;;;;;;5012820;28;20942;-71
2021/08/30 04:46:09;;;;;;;12.00;8.30;;;14.70;99.90;;;;;;5013095;28;20253;-70
2021/08/30 04:48:35;;;;;;;9.70;7.87;;;14.70;99.90;;;;;;4995221;28;20527;-70
2021/08/30 04:51:01;;;;;;;7.87;6.67;;;14.70;99.90;;;;;;4995163;28;20179;-70
2021/08/30 04:53:27;;;;;;;10.57;8.23;;;14.80;99.90;;;;;;4995081;28;20439;-70
2021/08/30 04:55:53;;;;;;;8.20;6.70;;;14.80;99.90;;;;;;4995172;28;20416;-70
2021/08/30 04:58:19;;;;;;;10.97;8.20;;;14.80;99.90;;;;;;4994979;28;20539;-70
2021/08/30 05:00:44;;;;;;;10.43;8.23;;;14.80;99.90;;;;;;5012894;28;20169;-70
2021/08/30 05:03:10;;;;;;;12.43;9.30;;;14.80;99.90;;;;;;4995092;28;20200;-70
2021/08/30 05:05:35;;;;;;;11.00;8.80;;;14.80;99.90;;;;;;4994640;28;20177;-70
2021/08/30 05:08:01;;;;;;;11.40;8.63;;;14.80;99.90;;;;;;4994874;28;20599;-70
2021/08/30 05:10:26;;;;;;;9.20;6.70;;;14.80;99.90;;;;;;5012348;28;20644;-70
2021/08/30 05:12:52;;;;;;;8.77;7.63;;;14.80;99.90;;;;;;5012282;28;20695;-70
2021/08/30 05:15:18;;;;;;;8.40;7.43;;;14.90;99.90;;;;;;4994891;28;20173;-70
2021/08/30 05:17:43;;;;;;;12.93;9.67;;;15.00;99.90;;;;;;5012300;28;20207;-70
2021/08/30 05:20:09;;;;;;;8.47;7.10;;;15.00;99.90;;;;;;5011411;28;20175;-70
2021/08/30 05:22:35;;;;;;;10.30;8.17;;;15.00;99.90;;;;;;5012177;28;20608;-70
2021/08/30 05:25:01;;;;;;;8.70;7.77;;;15.00;99.90;;;;;;5012356;28;20418;-70
2021/08/30 05:27:27;;;;;;;9.43;7.73;;;15.00;99.90;;;;;;4994368;28;20264;-70
2021/08/30 05:29:54;;;;;;;9.33;7.70;;;15.10;99.90;;;;;;5012237;28;20399;-70
2021/08/30 05:32:20;;;;;;;10.40;8.27;;;15.10;99.90;;;;;;5011980;28;20181;-70
2021/08/30 05:34:45;;;;;;;10.70;9.17;;;15.00;99.90;;;;;;5012228;28;20848;-70
2021/08/30 05:37:13;;;;;;;10.70;8.73;;;15.00;99.90;;;;;;5011957;28;20548;-70
2021/08/30 05:39:39;;;;;;;11.73;10.27;;;15.10;99.90;;;;;;5012047;28;20679;-70
2021/08/30 05:42:05;;;;;;;16.10;10.40;;;15.10;99.90;;;;;;4994080;28;20471;-70
2021/08/30 05:44:30;;;;;;;12.90;10.00;;;15.10;99.90;;;;;;4994583;28;20174;-70
2021/08/30 05:46:56;;;;;;;21.03;11.67;;;15.10;99.90;;;;;;4994338;28;20171;-70
2021/08/30 05:49:22;;;;;;;14.70;11.17;;;15.20;99.90;;;;;;5012064;28;20651;-71
2021/08/30 05:51:48;;;;;;;18.50;13.47;;;15.20;99.90;;;;;;5011949;28;20255;-69
2021/08/30 05:54:14;;;;;;;16.90;12.37;;;15.20;99.90;;;;;;5011853;28;20239;-70
2021/08/30 05:56:39;;;;;;;14.57;11.43;;;15.10;99.90;;;;;;5011808;28;20556;-70
2021/08/30 05:59:05;;;;;;;14.90;12.20;;;15.20;99.90;;;;;;5011821;28;20418;-70
2021/08/30 06:01:31;;;;;;;18.07;12.17;;;15.20;99.90;;;;;;5011678;28;20218;-70
2021/08/30 06:03:56;;;;;;;16.57;12.80;;;15.20;99.90;;;;;;5011637;28;20227;-70
2021/08/30 06:06:22;;;;;;;14.83;12.17;;;15.30;99.90;;;;;;5011332;28;20285;-70
2021/08/30 06:08:48;;;;;;;17.70;12.60;;;15.30;99.90;;;;;;5011007;28;20184;-70
2021/08/30 06:11:13;;;;;;;18.77;11.40;;;15.30;99.90;;;;;;5010905;28;20180;-70
2021/08/30 06:13:39;;;;;;;17.07;12.97;;;15.40;99.90;;;;;;5011059;28;20276;-70
2021/08/30 06:16:04;;;;;;;16.27;12.30;;;15.30;99.90;;;;;;4993450;28;20173;-70
2021/08/30 06:18:30;;;;;;;21.97;12.77;;;15.40;99.90;;;;;;5014871;28;20207;-70
2021/08/30 06:20:55;;;;;;;17.03;12.50;;;15.40;99.90;;;;;;5015050;28;20166;-70
2021/08/30 06:23:21;;;;;;;17.57;11.73;;;15.40;99.90;;;;;;5014797;28;20295;-70
2021/08/30 06:25:46;;;;;;;16.67;12.93;;;15.40;99.90;;;;;;5014680;28;20174;-70
2021/08/30 06:28:12;;;;;;;13.57;10.90;;;15.40;99.90;;;;;;5014823;28;20167;-70
2021/08/30 06:30:38;;;;;;;15.03;11.90;;;15.40;99.90;;;;;;5014907;28;20177;-70
2021/08/30 06:33:04;;;;;;;18.73;12.87;;;15.40;99.90;;;;;;5014569;28;20207;-70
2021/08/30 06:35:29;;;;;;;18.20;12.63;;;15.50;99.90;;;;;;5014600;28;20253;-70
2021/08/30 06:37:55;;;;;;;15.37;11.60;;;15.50;99.90;;;;;;4997013;28;20326;-70
2021/08/30 06:40:23;;;;;;;16.03;11.00;;;15.50;99.90;;;;;;5014464;28;20198;-70
2021/08/30 06:42:49;;;;;;;15.43;12.83;;;15.60;99.90;;;;;;4996806;28;20222;-70
2021/08/30 06:45:15;;;;;;;15.17;10.53;;;15.60;99.90;;;;;;4996977;28;20412;-70
2021/08/30 06:47:42;;;;;;;13.60;10.87;;;15.70;99.90;;;;;;5014470;28;20781;-70
2021/08/30 06:50:08;;;;;;;14.93;11.70;;;15.70;99.90;;;;;;4996757;28;20304;-70
2021/08/30 06:52:34;;;;;;;13.70;10.70;;;15.70;99.90;;;;;;5014221;28;20435;-70
2021/08/30 06:55:01;;;;;;;13.07;10.90;;;15.70;99.90;;;;;;5012995;28;20445;-71
2021/08/30 06:57:30;;;;;;;17.20;11.00;;;15.70;99.90;;;;;;4996574;28;20823;-70
2021/08/30 06:59:56;;;;;;;15.87;9.97;;;15.70;99.90;;;;;;4996553;28;20507;-70
2021/08/30 07:02:22;;;;;;;12.67;10.53;;;15.70;99.90;;;;;;5014008;28;20534;-70
2021/08/30 07:04:47;;;;;;;15.00;11.30;;;15.70;99.90;;;;;;5014371;28;20178;-70
2021/08/30 07:07:13;;;;;;;12.90;9.67;;;15.80;99.90;;;;;;5014308;28;20201;-70
2021/08/30 07:09:38;;;;;;;12.90;9.70;;;15.70;99.90;;;;;;4996847;28;20182;-70
2021/08/30 07:12:04;;;;;;;10.87;8.70;;;15.80;99.90;;;;;;4996535;28;20177;-70
2021/08/30 07:14:30;;;;;;;13.40;10.70;;;15.80;99.90;;;;;;5013489;28;20169;-70
2021/08/30 07:16:55;;;;;;;17.63;11.83;;;15.80;99.90;;;;;;5014249;28;20420;-70
2021/08/30 07:19:21;;;;;;;13.33;10.83;;;15.90;99.90;;;;;;4996448;28;20178;-70
2021/08/30 07:21:46;;;;;;;11.43;10.40;;;15.90;99.90;;;;;;5013836;28;20205;-70
2021/08/30 07:24:12;;;;;;;11.60;10.40;;;15.90;99.90;;;;;;5013747;28;20615;-70
2021/08/30 07:26:37;;;;;;;12.33;9.33;;;15.90;99.90;;;;;;5014258;28;20612;-71
2021/08/30 07:29:03;;;;;;;15.20;11.03;;;15.90;99.90;;;;;;5013906;28;20608;-70
2021/08/30 07:31:29;;;;;;;13.53;8.97;;;15.90;99.90;;;;;;4996384;28;20216;-70
2021/08/30 07:33:55;;;;;;;13.53;8.37;;;16.00;99.90;;;;;;4995880;28;20193;-70
2021/08/30 07:36:21;;;;;;;10.23;9.07;;;15.90;99.90;;;;;;5013768;28;20232;-70
2021/08/30 07:38:46;;;;;;;14.63;9.90;;;15.90;99.90;;;;;;5013418;28;20416;-70
2021/08/30 07:41:12;;;;;;;10.10;9.00;;;15.90;99.90;;;;;;5013789;28;20416;-70
2021/08/30 07:43:38;;;;;;;12.60;10.20;;;16.00;99.90;;;;;;5013309;28;20237;-70
2021/08/30 07:46:03;;;;;;;12.43;10.20;;;15.90;99.90;;;;;;5013604;28;20256;-70
2021/08/30 07:48:29;;;;;;;12.53;10.17;;;15.90;99.90;;;;;;5013419;28;20173;-70
2021/08/30 07:50:55;;;;;;;12.57;9.83;;;16.00;99.90;;;;;;4995851;28;20170;-70
2021/08/30 07:53:26;;;;;;;16.73;11.80;;;16.00;99.90;;;;;;5013320;28;20198;-70
2021/08/30 07:55:52;;;;;;;11.57;10.03;;;15.90;99.90;;;;;;5013627;28;20204;-70
2021/08/30 07:58:17;;;;;;;15.70;9.83;;;15.90;99.90;;;;;;5013295;28;20991;-69
2021/08/30 08:00:43;;;;;;;14.37;10.60;;;15.90;99.90;;;;;;5013128;28;20200;-69
2021/08/30 08:03:08;;;;;;;12.33;9.73;;;15.90;99.90;;;;;;5013042;28;20241;-69
2021/08/30 08:05:34;;;;;;;12.13;10.10;;;15.90;99.90;;;;;;5012939;28;20201;-69
2021/08/30 08:08:01;;;;;;;15.07;10.60;;;16.00;99.90;;;;;;5012862;28;20659;-70
2021/08/30 08:10:27;;;;;;;11.90;9.80;;;16.10;99.90;;;;;;4995457;28;20218;-69
2021/08/30 08:12:52;;;;;;;12.03;9.50;;;16.20;99.90;;;;;;4995159;28;20438;-68
2021/08/30 08:15:18;;;;;;;10.13;9.13;;;16.30;99.90;;;;;;5013289;28;20226;-70
2021/08/30 08:17:43;;;;;;;10.80;9.70;;;16.40;99.90;;;;;;5012332;28;20651;-70
2021/08/30 08:20:09;;;;;;;11.03;8.00;;;16.50;99.90;;;;;;5012156;28;20623;-70
2021/08/30 08:22:35;;;;;;;10.57;8.33;;;16.60;99.90;;;;;;4994580;28;20240;-70
2021/08/30 08:25:03;;;;;;;10.57;8.40;;;16.70;99.90;;;;;;4994268;28;20218;-70
2021/08/30 08:27:30;;;;;;;9.30;8.30;;;16.70;99.90;;;;;;4994314;28;20558;-69
2021/08/30 08:29:56;;;;;;;10.50;8.03;;;16.70;99.90;;;;;;4994332;28;20419;-70
2021/08/30 08:32:21;;;;;;;10.23;8.20;;;16.60;99.90;;;;;;4993957;28;20530;-69
2021/08/30 08:34:47;;;;;;;10.50;7.33;;;16.60;99.90;;;;;;5011623;28;20312;-69
2021/08/30 08:37:12;;;;;;;10.13;8.33;;;16.50;99.90;;;;;;4993828;28;21053;-69
2021/08/30 08:39:38;;;;;;;10.57;8.10;;;16.40;99.90;;;;;;5010908;28;20228;-68
2021/08/30 08:42:04;;;;;;;11.90;9.00;;;16.40;99.90;;;;;;5011389;28;20206;-69
2021/08/30 08:44:29;;;;;;;10.80;8.60;;;16.60;99.90;;;;;;4993870;28;20178;-68
2021/08/30 08:46:55;;;;;;;8.50;7.80;;;16.60;99.90;;;;;;4993582;28;20203;-70
2021/08/30 08:49:22;;;;;;;10.07;7.73;;;16.70;99.90;;;;;;4993850;28;20178;-70
2021/08/30 08:51:48;;;;;;;11.93;8.90;;;16.70;99.90;;;;;;5011346;28;20427;-69
2021/08/30 08:54:14;;;;;;;9.63;7.77;;;16.80;99.90;;;;;;4993664;28;20431;-70
2021/08/30 08:56:40;;;;;;;9.07;7.60;;;17.00;99.90;;;;;;5011395;28;20503;-70
2021/08/30 08:59:05;;;;;;;7.90;7.10;;;17.10;99.90;;;;;;4993621;28;20171;-70
2021/08/30 09:01:32;;;;;;;8.47;6.87;;;17.10;99.90;;;;;;5011235;28;20181;-68
2021/08/30 09:03:58;;;;;;;7.67;6.97;;;17.10;99.90;;;;;;5010967;28;20702;-69
2021/08/30 09:06:29;;;;;;;5.60;5.10;;;17.20;99.90;;;;;;5011399;28;20570;-70
2021/08/30 09:09:01;;;;;;;6.07;5.50;;;17.20;99.90;;;;;;5011464;28;20402;-69
2021/08/30 09:11:39;;;;;;;8.27;6.70;;;17.20;99.90;;;;;;4993594;28;20844;-70
2021/08/30 09:14:20;;;;;;;6.23;5.43;;;17.30;99.90;;;;;;5011340;28;20429;-69
2021/08/30 09:18:40;;;;;;;6.17;5.57;;;17.00;99.90;;;;;;5124812;27;20552;-68
2021/08/30 09:21:11;;;;;;;7.20;5.43;;;17.00;99.90;;;;;;5109120;28;20488;-69
2021/08/30 09:23:39;;;;;;;6.33;5.50;;;17.10;99.90;;;;;;5123441;28;20512;-69
2021/08/30 09:26:04;;;;;;;6.47;5.70;;;17.10;99.90;;;;;;5111382;28;20409;-68
2021/08/30 09:28:36;;;;;;;5.60;4.73;;;17.30;99.90;;;;;;5129554;28;20783;-68
2021/08/30 09:31:02;;;;;;;5.83;5.30;;;17.20;99.90;;;;;;5129495;27;20165;-68
2021/08/30 09:33:34;;;;;;;6.50;5.70;;;17.20;99.90;;;;;;5130121;27;20414;-68
2021/08/30 09:36:00;;;;;;;6.23;5.63;;;17.20;99.90;;;;;;5128733;28;20746;-67
2021/08/30 09:38:35;;;;;;;6.27;5.67;;;17.30;99.90;;;;;;5128080;28;20567;-67
2021/08/30 09:41:06;;;;;;;5.63;5.13;;;17.50;99.90;;;;;;5129366;27;20406;-67
2021/08/30 09:43:35;;;;;;;6.13;5.50;;;17.40;99.90;;;;;;5129259;27;20461;-68
2021/08/30 09:46:05;;;;;;;5.97;5.37;;;17.50;99.90;;;;;;5129622;28;20409;-67
2021/08/30 09:48:33;;;;;;;5.67;5.17;;;17.40;99.90;;;;;;5129391;27;20414;-67
2021/08/30 09:51:01;;;;;;;5.70;5.20;;;17.40;99.90;;;;;;5128071;28;20452;-69
2021/08/30 09:53:27;;;;;;;7.50;5.70;;;17.40;99.90;;;;;;5127981;28;20468;-68
2021/08/30 09:55:54;;;;;;;5.93;5.43;;;17.30;99.90;;;;;;5129182;27;20483;-68
2021/08/30 09:58:24;;;;;;;6.30;5.70;;;17.20;99.90;;;;;;5127800;28;20457;-67
2021/08/30 10:00:52;;;;;;;5.77;5.27;;;17.30;99.90;;;;;;5111592;28;20416;-67
2021/08/30 10:03:18;;;;;;;5.97;5.47;;;17.30;99.90;;;;;;5111092;28;20478;-68
2021/08/30 10:05:45;;;;;;;8.27;6.10;;;17.30;99.90;;;;;;5128334;28;20532;-68
2021/08/30 10:08:15;;;;;;;6.50;5.90;;;17.20;99.90;;;;;;5111238;28;20411;-68
2021/08/30 10:10:42;;;;;;;6.10;5.50;;;17.30;99.90;;;;;;5128116;28;20434;-68
2021/08/30 10:13:10;;;;;;;5.93;5.33;;;17.10;99.90;;;;;;5111158;28;20432;-68
2021/08/30 10:15:36;;;;;;;5.70;5.10;;;17.10;99.90;;;;;;5129400;27;20887;-68
2021/08/30 10:18:02;;;;;;;6.03;5.43;;;17.30;99.90;;;;;;5110343;28;20877;-68
2021/08/30 10:20:33;;;;;;;5.63;4.93;;;17.40;99.90;;;;;;5110981;28;20425;-68
2021/08/30 10:23:05;;;;;;;6.23;5.63;;;17.60;99.90;;;;;;5129004;27;20188;-68
2021/08/30 10:25:32;;;;;;;7.33;6.33;;;17.70;99.90;;;;;;5110880;28;20470;-68
2021/08/30 10:28:10;;;;;;;5.77;5.07;;;17.70;99.90;;;;;;5127353;27;20410;-69
2021/08/30 10:30:38;;;;;;;5.30;4.80;;;17.80;99.90;;;;;;5114104;28;20901;-68
2021/08/30 10:33:06;;;;;;;5.70;5.10;;;17.80;99.90;;;;;;5114985;28;20825;-68
2021/08/30 10:35:35;;;;;;;5.53;5.13;;;17.80;99.90;;;;;;5115406;27;20406;-68
2021/08/30 10:38:01;;;;;;;5.37;4.97;;;17.70;99.90;;;;;;5115438;28;20617;-68
2021/08/30 10:40:33;;;;;;;4.70;4.30;;;17.60;99.90;;;;;;5114576;28;20752;-68
2021/08/30 10:43:11;;;;;;;5.40;5.00;;;17.60;99.90;;;;;;5113993;28;20864;-68
2021/08/30 10:45:58;;;;;;;6.70;4.90;;;17.70;99.90;;;;;;5115282;28;20405;-68
2021/08/30 10:48:36;;;;;;;5.47;4.50;;;17.90;99.90;;;;;;5113640;28;20440;-67
2021/08/30 10:51:18;;;;;;;5.03;4.63;;;17.80;99.90;;;;;;5114984;28;20427;-68
2021/08/30 10:53:55;;;;;;;4.00;3.70;;;17.80;99.90;;;;;;5113554;28;20818;-67
2021/08/30 10:56:25;;;;;;;5.20;3.90;;;17.80;99.90;;;;;;5113895;28;20417;-67
2021/08/30 10:58:50;;;;;;;5.03;4.63;;;17.80;99.90;;;;;;5115298;28;20452;-68
2021/08/30 11:01:16;;;;;;;4.13;3.80;;;17.80;99.90;;;;;;5115416;28;20532;-69
2021/08/30 11:03:41;;;;;;;4.67;4.27;;;17.80;99.90;;;;;;5115550;28;20456;-68
2021/08/30 11:06:12;;;;;;;6.50;5.03;;;17.90;99.90;;;;;;5115290;28;20176;-68
2021/08/30 11:08:40;;;;;;;5.70;5.10;;;17.60;99.90;;;;;;5114951;28;20272;-68
2021/08/30 11:11:17;;;;;;;5.10;4.60;;;17.80;99.90;;;;;;5114426;28;20414;-68
2021/08/30 11:14:04;;;;;;;4.73;4.33;;;17.80;99.90;;;;;;5114520;28;20460;-68
2021/08/30 11:16:33;;;;;;;4.80;4.00;;;17.60;99.90;;;;;;5113845;28;20422;-68
2021/08/30 11:19:01;;;;;;;4.73;4.13;;;17.70;99.90;;;;;;5114442;28;20420;-68
2021/08/30 11:21:52;;;;;;;5.83;5.33;;;17.90;99.90;;;;;;5114297;28;20406;-67
2021/08/30 11:24:30;;;;;;;5.07;4.57;;;18.20;99.90;;;;;;5114686;28;20406;-67
2021/08/30 11:27:05;;;;;;;5.67;5.17;;;18.40;99.90;;;;;;5114320;28;20764;-67
2021/08/30 11:29:32;;;;;;;5.73;4.43;;;18.50;99.90;;;;;;5114349;28;20752;-67
2021/08/30 11:31:58;;;;;;;4.60;4.20;;;18.30;99.90;;;;;;5113787;28;20404;-68
2021/08/30 11:34:29;;;;;;;4.60;4.20;;;18.40;99.90;;;;;;5112961;28;20752;-67
2021/08/30 11:36:56;;;;;;;6.33;5.83;;;18.50;99.90;;;;;;5114077;28;20560;-67
2021/08/30 11:39:22;;;;;;;4.20;3.80;;;18.50;99.90;;;;;;5113838;27;20928;-67
2021/08/30 11:41:58;;;;;;;6.80;4.30;;;18.70;99.90;;;;;;5111558;28;20411;-67
2021/08/30 11:44:24;;;;;;;6.10;4.30;;;18.80;99.90;;;;;;5113765;28;20167;-67
2021/08/30 11:47:01;;;;;;;4.23;3.83;;;19.00;99.90;;;;;;5112706;28;20412;-69
2021/08/30 11:49:29;;;;;;;5.30;4.80;;;19.10;99.90;;;;;;5113698;28;20819;-68
2021/08/30 11:51:58;;;;;;;4.07;3.77;;;18.80;99.90;;;;;;5112271;28;20534;-69
2021/08/30 11:54:33;;;;;;;5.00;3.67;;;18.80;99.90;;;;;;5113812;28;20502;-68
2021/08/30 11:57:07;;;;;;;3.87;3.50;;;18.70;99.90;;;;;;5113384;28;20975;-68
2021/08/30 11:59:36;;;;;;;4.10;3.80;;;18.80;99.90;;;;;;5113542;28;20822;-69
2021/08/30 12:02:03;;;;;;;4.13;3.80;;;18.80;99.90;;;;;;5113340;28;20568;-68
2021/08/30 12:04:31;;;;;;;3.80;3.50;;;18.80;99.90;;;;;;5113488;28;20409;-68
2021/08/30 12:07:00;;;;;;;4.67;4.03;;;18.90;99.90;;;;;;5113510;28;20413;-68
2021/08/30 12:09:37;;;;;;;4.00;3.60;;;18.90;99.90;;;;;;5113285;28;20818;-69
2021/08/30 12:12:14;;;;;;;3.67;3.37;;;18.80;99.90;;;;;;5113432;28;20402;-68
2021/08/30 12:14:39;;;;;;;3.83;3.50;;;18.70;99.90;;;;;;5113292;28;20469;-68
2021/08/30 12:17:05;;;;;;;3.10;2.90;;;18.90;99.90;;;;;;5113118;28;20457;-72
2021/08/30 12:19:32;;;;;;;3.27;3.00;;;18.80;99.90;;;;;;5113403;28;20173;-69
2021/08/30 12:21:57;;;;;;;4.70;3.27;;;18.80;99.90;;;;;;5111729;28;20157;-69
2021/08/30 12:24:24;;;;;;;3.00;2.80;;;18.90;99.90;;;;;;5111742;28;20407;-68
2021/08/30 12:26:54;;;;;;;4.83;3.10;;;18.80;99.90;;;;;;5111643;28;20173;-69
2021/08/30 12:29:20;;;;;;;3.30;3.00;;;18.70;99.90;;;;;;5113098;28;20409;-69
2021/08/30 12:31:54;;;;;;;3.57;3.27;;;18.60;99.90;;;;;;5111656;28;20404;-69
2021/08/30 12:34:25;;;;;;;3.30;3.03;;;18.50;99.90;;;;;;5112814;28;20966;-69
2021/08/30 12:36:50;;;;;;;3.30;3.00;;;18.40;99.90;;;;;;5113002;28;20593;-69
2021/08/30 12:39:16;;;;;;;4.43;3.27;;;18.50;99.90;;;;;;5111602;28;20855;-68
2021/08/30 12:41:42;;;;;;;4.50;3.43;;;18.70;99.90;;;;;;5112872;28;20640;-68
2021/08/30 12:44:07;;;;;;;4.07;3.00;;;18.60;99.90;;;;;;5111390;28;20801;-68
2021/08/30 12:46:33;;;;;;;3.30;3.00;;;18.60;99.90;;;;;;5111341;28;20173;-68
2021/08/30 12:48:59;;;;;;;3.70;3.10;;;18.60;99.90;;;;;;5112730;28;20599;-69